Kamakuramaru — JG5731 — position and weather

sailwx.info

Track history (hours):
 
Tides and Currents Weather Stations Pressure Air Temp Water Temp Dewpoint Dewpoint Depression Visibility Wind Speed Wind Dir Waves Ship Positions

Kamakuramaru

Last reported at 2014-Aug-23 03:33 UTC. Time now 2014-Aug-23 07:31 UTC.
Position N 35°27' E 139°39'.

Length 31 m; draft 2.5 m.

Type: Tug. MMSI: 431000439.

Date/timePositionNaut miles runAvg speedWind from/ knotsBaromVisibWave heightAir tempDewpointWater temp
2014-Aug-23 03:33N 35°27' E 139°39'0 0.0
2014-Aug-23 02:34N 35°27' E 139°39'0 0.0
2014-Aug-23 01:33N 35°27' E 139°39'0 0.0
2014-Aug-23 00:33N 35°27' E 139°39'0 0.0
2014-Aug-22 23:33N 35°27' E 139°39'2 1.6
2014-Aug-22 22:34N 35°27' E 139°41'2 2.3
2014-Aug-22 21:34N 35°27' E 139°44'3 3.3
2014-Aug-22 20:34N 35°27' E 139°40'1 0.7
2014-Aug-22 19:33N 35°27' E 139°39'0 0.0
2014-Aug-22 18:33N 35°27' E 139°39'0 0.0
2014-Aug-22 17:34N 35°27' E 139°39'0 0.0
2014-Aug-22 16:34N 35°27' E 139°39'0 0.0
2014-Aug-22 15:33N 35°27' E 139°39'0 0.0
2014-Aug-22 14:34N 35°27' E 139°39'0 0.0
2014-Aug-22 13:34N 35°27' E 139°39'0 0.0
2014-Aug-22 12:34N 35°27' E 139°39'0 0.0
2014-Aug-22 11:34N 35°27' E 139°39'0 0.0
2014-Aug-22 10:33N 35°27' E 139°39'0 0.0
2014-Aug-22 09:34N 35°27' E 139°39'0 0.0
2014-Aug-22 08:33N 35°27' E 139°39'1 0.9
2014-Aug-22 07:33N 35°27' E 139°41'1 0.9
2014-Aug-22 06:34N 35°28' E 139°42'2 1.8
2014-Aug-22 05:34N 35°27' E 139°39'0 0.0
2014-Aug-22 04:34N 35°27' E 139°39'0 0.0
2014-Aug-22 03:34N 35°27' E 139°39'3 2.7
2014-Aug-22 02:34N 35°29' E 139°42'4 4.0
2014-Aug-22 01:33N 35°31' E 139°46'0 0.2
2014-Aug-22 00:34N 35°31' E 139°46'1 1.4
2014-Aug-21 23:33N 35°29' E 139°47'7 6.6
2014-Aug-21 22:34N 35°27' E 139°39'0 0.0
2014-Aug-21 21:34N 35°27' E 139°39'0 0.0
2014-Aug-21 20:34N 35°27' E 139°39'0 0.0
2014-Aug-21 19:33N 35°27' E 139°39'0 0.0
2014-Aug-21 18:33N 35°27' E 139°39'0 0.0
2014-Aug-21 17:34N 35°27' E 139°39'0 0.0
2014-Aug-21 16:34N 35°27' E 139°39'0 0.0
2014-Aug-21 15:34N 35°27' E 139°39'0 0.0
2014-Aug-21 14:34N 35°27' E 139°39'0 0.0
2014-Aug-21 13:33N 35°27' E 139°39'0 0.0
2014-Aug-21 12:33N 35°27' E 139°39'0 0.0
2014-Aug-21 11:33N 35°27' E 139°39'0 0.0
2014-Aug-21 10:34N 35°27' E 139°39'0 0.0
2014-Aug-21 09:34N 35°27' E 139°39'1 1.2
2014-Aug-21 08:34N 35°27' E 139°41'1 1.0
2014-Aug-21 07:34N 35°26' E 139°41'1 1.3
2014-Aug-21 06:34N 35°27' E 139°39'0 0.0
2014-Aug-21 05:33N 35°27' E 139°39'0 0.0
2014-Aug-21 04:34N 35°27' E 139°39'0 0.0
2014-Aug-21 03:34N 35°27' E 139°39'0 0.0
2014-Aug-21 02:34N 35°27' E 139°39'0 0.0
2014-Aug-21 01:34N 35°27' E 139°39'0 0.0
2014-Aug-21 00:33N 35°27' E 139°39'0 0.0
2014-Aug-20 23:33N 35°27' E 139°39'4 4.2
2014-Aug-20 22:34N 35°23' E 139°40'1 1.1
2014-Aug-20 21:34N 35°23' E 139°41'4 3.8
2014-Aug-20 20:33N 35°27' E 139°39'0 0.0
2014-Aug-20 19:34N 35°27' E 139°39'0 0.0
2014-Aug-20 18:34N 35°27' E 139°39'0 0.0
2014-Aug-20 17:34N 35°27' E 139°39'0 0.0
2014-Aug-20 16:33N 35°27' E 139°39'0 0.0
2014-Aug-20 15:34N 35°27' E 139°39'0 0.0
2014-Aug-20 14:33N 35°27' E 139°39'0 0.0
2014-Aug-20 13:34N 35°27' E 139°39'0 0.0
2014-Aug-20 12:34N 35°27' E 139°39'0 0.0
2014-Aug-20 11:34N 35°27' E 139°39'0 0.0
2014-Aug-20 10:33N 35°27' E 139°39'0 0.0
2014-Aug-20 09:33N 35°27' E 139°39'0 0.0
2014-Aug-20 08:33N 35°27' E 139°39'0 0.0
2014-Aug-20 07:34N 35°27' E 139°39'1 0.8
2014-Aug-20 06:33N 35°27' E 139°40'0 0.2
2014-Aug-20 05:34N 35°27' E 139°41'1 0.9
2014-Aug-20 04:34N 35°27' E 139°39'0 0.0
2014-Aug-20 03:34N 35°27' E 139°39'0 0.0
2014-Aug-20 02:34N 35°27' E 139°39'0 0.0
2014-Aug-20 01:33N 35°27' E 139°39'0 0.0
2014-Aug-20 00:33N 35°27' E 139°39'2 1.6
2014-Aug-19 23:34N 35°29' E 139°39'2 2.5
2014-Aug-19 22:33N 35°27' E 139°41'1 1.3
2014-Aug-19 21:34N 35°27' E 139°39'0 0.0
2014-Aug-19 20:34N 35°27' E 139°39'0 0.0
2014-Aug-19 19:34N 35°27' E 139°39'0 0.0
2014-Aug-19 18:34N 35°27' E 139°39'0 0.0
2014-Aug-19 17:34N 35°27' E 139°39'0 0.0
2014-Aug-19 16:33N 35°27' E 139°39'0 0.0
2014-Aug-19 15:34N 35°27' E 139°39'0 0.0
2014-Aug-19 14:33N 35°27' E 139°39'0 0.0
2014-Aug-19 13:34N 35°27' E 139°39'0 0.0
2014-Aug-19 12:34N 35°27' E 139°39'0 0.0
2014-Aug-19 11:34N 35°27' E 139°39'0 0.0
2014-Aug-19 10:33N 35°27' E 139°39'0 0.0
2014-Aug-19 09:34N 35°27' E 139°39'0 0.0
2014-Aug-19 08:33N 35°27' E 139°39'2 1.6
2014-Aug-19 07:34N 35°28' E 139°39'2 1.6
2014-Aug-19 06:34N 35°27' E 139°39'1 0.8
2014-Aug-19 05:34N 35°27' E 139°40'1 0.8
2014-Aug-19 04:34N 35°27' E 139°39'0 0.0
2014-Aug-19 03:33N 35°27' E 139°39'0 0.0
2014-Aug-19 02:33N 35°27' E 139°39'0 0.0
2014-Aug-19 01:34N 35°27' E 139°39'0 0.0
2014-Aug-19 00:34N 35°27' E 139°39'0 0.0
2014-Aug-18 23:33N 35°27' E 139°39'1 1.3
2014-Aug-18 22:34N 35°27' E 139°41'1 1.3
2014-Aug-18 21:34N 35°27' E 139°39'0 0.0
2014-Aug-18 20:33N 35°27' E 139°39'0 0.0
2014-Aug-18 19:34N 35°27' E 139°39'0 0.0
2014-Aug-18 18:34N 35°27' E 139°39'0 0.0
2014-Aug-18 17:34N 35°27' E 139°39'0 0.0
2014-Aug-18 16:34N 35°27' E 139°39'0 0.0
2014-Aug-18 15:34N 35°27' E 139°39'0 0.0
2014-Aug-18 14:33N 35°27' E 139°39'0 0.0
2014-Aug-18 13:34N 35°27' E 139°39'0 0.0
2014-Aug-18 12:33N 35°27' E 139°39'0 0.0
2014-Aug-18 11:34N 35°27' E 139°39'0 0.0
2014-Aug-18 10:33N 35°27' E 139°39'0 0.0
2014-Aug-18 09:33N 35°27' E 139°39'0 0.0
2014-Aug-18 08:34N 35°27' E 139°39'0 0.0
2014-Aug-18 07:33N 35°27' E 139°39'0 0.0
2014-Aug-18 06:34N 35°27' E 139°39'0 0.0
2014-Aug-18 05:34N 35°27' E 139°39'0 0.0
2014-Aug-18 04:33N 35°27' E 139°39'0 0.0
2014-Aug-18 03:33N 35°27' E 139°39'0 0.0
2014-Aug-18 02:34N 35°27' E 139°39'0 0.0
2014-Aug-18 01:33N 35°27' E 139°39'6 6.3
2014-Aug-18 00:33N 35°31' E 139°46'6 1.1
2014-Aug-17 18:33N 35°27' E 139°39'0 0.0
2014-Aug-17 17:34N 35°27' E 139°39'0 0.0
2014-Aug-17 16:34N 35°27' E 139°39'0 0.0
2014-Aug-17 15:34N 35°27' E 139°39'0 0.0
2014-Aug-17 14:34N 35°27' E 139°39'0 0.0
2014-Aug-17 13:33N 35°27' E 139°39'0 0.0
2014-Aug-17 12:34N 35°27' E 139°39'0 0.0
2014-Aug-17 11:34N 35°27' E 139°39'0 0.0
2014-Aug-17 10:34N 35°27' E 139°39'0 0.0
2014-Aug-17 09:34N 35°27' E 139°39'2 2.4
2014-Aug-17 08:34N 35°26' E 139°42'2 2.4
2014-Aug-17 07:33N 35°27' E 139°39'0 0.0
2014-Aug-17 06:33N 35°27' E 139°39'0 0.0
2014-Aug-17 05:33N 35°27' E 139°39'0 0.0
2014-Aug-17 04:33N 35°27' E 139°39'0 0.0
2014-Aug-17 03:34N 35°27' E 139°39'0 0.0
2014-Aug-17 02:33N 35°27' E 139°39'0 0.0
2014-Aug-17 01:33N 35°27' E 139°39'1 1.2
2014-Aug-17 00:33N 35°27' E 139°41'1 1.2
2014-Aug-16 23:33N 35°27' E 139°39'0 0.0
2014-Aug-16 22:34N 35°27' E 139°39'0 0.0
2014-Aug-16 21:34N 35°27' E 139°39'0 0.0
2014-Aug-16 20:33N 35°27' E 139°39'0 0.0
2014-Aug-16 19:34N 35°27' E 139°39'0 0.0
2014-Aug-16 18:34N 35°27' E 139°39'0 0.0
2014-Aug-16 17:33N 35°27' E 139°39'0 0.0
2014-Aug-16 16:33N 35°27' E 139°39'0 0.0
2014-Aug-16 15:34N 35°27' E 139°39'0 0.0
2014-Aug-16 14:34N 35°27' E 139°39'0 0.0
2014-Aug-16 13:34N 35°27' E 139°39'0 0.0
2014-Aug-16 12:33N 35°27' E 139°39'0 0.0
2014-Aug-16 11:34N 35°27' E 139°39'0 0.0
2014-Aug-16 10:33N 35°27' E 139°39'0 0.0
2014-Aug-16 09:34N 35°27' E 139°39'0 0.0
2014-Aug-16 08:34N 35°27' E 139°39'0 0.0
2014-Aug-16 07:33N 35°27' E 139°39'0 0.0
2014-Aug-16 06:33N 35°27' E 139°39'0 0.0
2014-Aug-16 05:34N 35°27' E 139°39'0 0.0
2014-Aug-16 04:34N 35°27' E 139°39'0 0.0
2014-Aug-16 03:33N 35°27' E 139°39'0 0.0
2014-Aug-16 02:33N 35°27' E 139°39'0 0.0
2014-Aug-16 01:33N 35°27' E 139°39'0 0.0
2014-Aug-16 00:33N 35°27' E 139°39'0 0.0
2014-Aug-15 23:33N 35°27' E 139°39'0 0.0
2014-Aug-15 22:34N 35°27' E 139°39'0 0.0
2014-Aug-15 21:33N 35°27' E 139°39'0 0.0
2014-Aug-15 20:33N 35°27' E 139°39'0 0.0
2014-Aug-15 19:34N 35°27' E 139°39'0 0.0
2014-Aug-15 18:33N 35°27' E 139°39'0 0.0
2014-Aug-15 17:34N 35°27' E 139°39'0 0.0
2014-Aug-15 16:34N 35°27' E 139°39'0 0.0
2014-Aug-15 15:33N 35°27' E 139°39'0 0.0
2014-Aug-15 14:34N 35°27' E 139°39'0 0.0
2014-Aug-15 13:34N 35°27' E 139°39'0 0.0
2014-Aug-15 12:33N 35°27' E 139°39'0 0.0
2014-Aug-15 11:34N 35°27' E 139°39'0 0.0
2014-Aug-15 10:34N 35°27' E 139°39'0 0.0
2014-Aug-15 09:33N 35°27' E 139°39'0 0.0
2014-Aug-15 08:34N 35°27' E 139°39'0 0.0
2014-Aug-15 07:34N 35°27' E 139°39'0 0.0
2014-Aug-15 06:33N 35°27' E 139°39'5 4.7
2014-Aug-15 05:33N 35°30' E 139°44'2 2.2
2014-Aug-15 04:34N 35°29' E 139°42'2 1.7
2014-Aug-15 03:33N 35°28' E 139°44'0 0.1
2014-Aug-15 02:33N 35°28' E 139°44'0 0.0
2014-Aug-15 01:33N 35°28' E 139°44'0 0.0
2014-Aug-15 00:33N 35°28' E 139°44'0 0.0
2014-Aug-14 23:33N 35°28' E 139°44'0 0.0
2014-Aug-14 22:33N 35°28' E 139°44'4 3.8
2014-Aug-14 21:33N 35°31' E 139°46'7 6.6
2014-Aug-14 20:33N 35°27' E 139°39'0 0.0
2014-Aug-14 19:33N 35°27' E 139°39'0 0.0
2014-Aug-14 18:33N 35°27' E 139°39'0 0.0
2014-Aug-14 17:34N 35°27' E 139°39'0 0.0
2014-Aug-14 16:34N 35°27' E 139°39'0 0.0
2014-Aug-14 15:33N 35°27' E 139°39'0 0.0
2014-Aug-14 14:33N 35°27' E 139°39'0 0.0
2014-Aug-14 13:33N 35°27' E 139°39'0 0.0
2014-Aug-14 12:33N 35°27' E 139°39'0 0.0
2014-Aug-14 11:33N 35°27' E 139°39'0 0.0
2014-Aug-14 10:33N 35°27' E 139°39'1 1.1
2014-Aug-14 09:33N 35°27' E 139°41'3 3.1
2014-Aug-14 08:34N 35°24' E 139°41'1 1.1
2014-Aug-14 07:33N 35°23' E 139°41'5 4.8
2014-Aug-14 06:33N 35°26' E 139°44'5 4.7
2014-Aug-14 05:33N 35°31' E 139°46'4 3.5
2014-Aug-14 04:33N 35°29' E 139°42'3 3.1
2014-Aug-14 03:33N 35°27' E 139°39'0 0.0
2014-Aug-14 02:34N 35°27' E 139°39'0 0.0
2014-Aug-14 01:34N 35°27' E 139°39'0 0.1
2014-Aug-14 00:33N 35°27' E 139°39'1 1.4
2014-Aug-13 23:34N 35°26' E 139°41'2 2.2
2014-Aug-13 22:33N 35°26' E 139°43'3 3.4
2014-Aug-13 21:33N 35°27' E 139°39'0 0.0
2014-Aug-13 20:33N 35°27' E 139°39'0 0.0
2014-Aug-13 19:34N 35°27' E 139°39'0 0.0
2014-Aug-13 18:33N 35°27' E 139°39'0 0.0
2014-Aug-13 17:33N 35°27' E 139°39'0 0.0
2014-Aug-13 16:33N 35°27' E 139°39'0 0.0
2014-Aug-13 15:33N 35°27' E 139°39'0 0.0
2014-Aug-13 14:34N 35°27' E 139°39'0 0.0
2014-Aug-13 13:33N 35°27' E 139°39'0 0.0
2014-Aug-13 12:33N 35°27' E 139°39'0 0.0
2014-Aug-13 11:34N 35°27' E 139°39'0 0.0
2014-Aug-13 10:33N 35°27' E 139°39'1 1.0
2014-Aug-13 09:34N 35°27' E 139°41'1 1.1
2014-Aug-13 08:33N 35°26' E 139°42'2 2.0
2014-Aug-13 07:34N 35°27' E 139°39'0 0.0
2014-Aug-13 06:34N 35°27' E 139°39'0 0.0
2014-Aug-13 05:33N 35°27' E 139°39'0 0.0
2014-Aug-13 04:33N 35°27' E 139°39'  
Track history (hours):
 
Tides and Currents Weather Stations Pressure Air Temp Water Temp Dewpoint Dewpoint Depression Visibility Wind Speed Wind Dir Waves Ship Positions

Kamakuramaru

Last reported at 2014-Aug-23 03:33 UTC. Time now 2014-Aug-23 07:31 UTC.
Position N 35°27' E 139°39'.

Length 31 m; draft 2.5 m.

Type: Tug. MMSI: 431000439.

Date/timePositionNaut miles runAvg speedWind from/ knotsBaromVisibWave heightAir tempDewpointWater temp
2014-Aug-23 03:33N 35°27' E 139°39'0 0.0
2014-Aug-23 02:34N 35°27' E 139°39'0 0.0
2014-Aug-23 01:33N 35°27' E 139°39'0 0.0
2014-Aug-23 00:33N 35°27' E 139°39'0 0.0
2014-Aug-22 23:33N 35°27' E 139°39'2 1.6
2014-Aug-22 22:34N 35°27' E 139°41'2 2.3
2014-Aug-22 21:34N 35°27' E 139°44'3 3.3
2014-Aug-22 20:34N 35°27' E 139°40'1 0.7
2014-Aug-22 19:33N 35°27' E 139°39'0 0.0
2014-Aug-22 18:33N 35°27' E 139°39'0 0.0
2014-Aug-22 17:34N 35°27' E 139°39'0 0.0
2014-Aug-22 16:34N 35°27' E 139°39'0 0.0
2014-Aug-22 15:33N 35°27' E 139°39'0 0.0
2014-Aug-22 14:34N 35°27' E 139°39'0 0.0
2014-Aug-22 13:34N 35°27' E 139°39'0 0.0
2014-Aug-22 12:34N 35°27' E 139°39'0 0.0
2014-Aug-22 11:34N 35°27' E 139°39'0 0.0
2014-Aug-22 10:33N 35°27' E 139°39'0 0.0
2014-Aug-22 09:34N 35°27' E 139°39'0 0.0
2014-Aug-22 08:33N 35°27' E 139°39'1 0.9
2014-Aug-22 07:33N 35°27' E 139°41'1 0.9
2014-Aug-22 06:34N 35°28' E 139°42'2 1.8
2014-Aug-22 05:34N 35°27' E 139°39'0 0.0
2014-Aug-22 04:34N 35°27' E 139°39'0 0.0
2014-Aug-22 03:34N 35°27' E 139°39'3 2.7
2014-Aug-22 02:34N 35°29' E 139°42'4 4.0
2014-Aug-22 01:33N 35°31' E 139°46'0 0.2
2014-Aug-22 00:34N 35°31' E 139°46'1 1.4
2014-Aug-21 23:33N 35°29' E 139°47'7 6.6
2014-Aug-21 22:34N 35°27' E 139°39'0 0.0
2014-Aug-21 21:34N 35°27' E 139°39'0 0.0
2014-Aug-21 20:34N 35°27' E 139°39'0 0.0
2014-Aug-21 19:33N 35°27' E 139°39'0 0.0
2014-Aug-21 18:33N 35°27' E 139°39'0 0.0
2014-Aug-21 17:34N 35°27' E 139°39'0 0.0
2014-Aug-21 16:34N 35°27' E 139°39'0 0.0
2014-Aug-21 15:34N 35°27' E 139°39'0 0.0
2014-Aug-21 14:34N 35°27' E 139°39'0 0.0
2014-Aug-21 13:33N 35°27' E 139°39'0 0.0
2014-Aug-21 12:33N 35°27' E 139°39'0 0.0
2014-Aug-21 11:33N 35°27' E 139°39'0 0.0
2014-Aug-21 10:34N 35°27' E 139°39'0 0.0
2014-Aug-21 09:34N 35°27' E 139°39'1 1.2
2014-Aug-21 08:34N 35°27' E 139°41'1 1.0
2014-Aug-21 07:34N 35°26' E 139°41'1 1.3
2014-Aug-21 06:34N 35°27' E 139°39'0 0.0
2014-Aug-21 05:33N 35°27' E 139°39'0 0.0
2014-Aug-21 04:34N 35°27' E 139°39'0 0.0
2014-Aug-21 03:34N 35°27' E 139°39'0 0.0
2014-Aug-21 02:34N 35°27' E 139°39'0 0.0
2014-Aug-21 01:34N 35°27' E 139°39'0 0.0
2014-Aug-21 00:33N 35°27' E 139°39'0 0.0
2014-Aug-20 23:33N 35°27' E 139°39'4 4.2
2014-Aug-20 22:34N 35°23' E 139°40'1 1.1
2014-Aug-20 21:34N 35°23' E 139°41'4 3.8
2014-Aug-20 20:33N 35°27' E 139°39'0 0.0
2014-Aug-20 19:34N 35°27' E 139°39'0 0.0
2014-Aug-20 18:34N 35°27' E 139°39'0 0.0
2014-Aug-20 17:34N 35°27' E 139°39'0 0.0
2014-Aug-20 16:33N 35°27' E 139°39'0 0.0
2014-Aug-20 15:34N 35°27' E 139°39'0 0.0
2014-Aug-20 14:33N 35°27' E 139°39'0 0.0
2014-Aug-20 13:34N 35°27' E 139°39'0 0.0
2014-Aug-20 12:34N 35°27' E 139°39'0 0.0
2014-Aug-20 11:34N 35°27' E 139°39'0 0.0
2014-Aug-20 10:33N 35°27' E 139°39'0 0.0
2014-Aug-20 09:33N 35°27' E 139°39'0 0.0
2014-Aug-20 08:33N 35°27' E 139°39'0 0.0
2014-Aug-20 07:34N 35°27' E 139°39'1 0.8
2014-Aug-20 06:33N 35°27' E 139°40'0 0.2
2014-Aug-20 05:34N 35°27' E 139°41'1 0.9
2014-Aug-20 04:34N 35°27' E 139°39'0 0.0
2014-Aug-20 03:34N 35°27' E 139°39'0 0.0
2014-Aug-20 02:34N 35°27' E 139°39'0 0.0
2014-Aug-20 01:33N 35°27' E 139°39'0 0.0
2014-Aug-20 00:33N 35°27' E 139°39'2 1.6
2014-Aug-19 23:34N 35°29' E 139°39'2 2.5
2014-Aug-19 22:33N 35°27' E 139°41'1 1.3
2014-Aug-19 21:34N 35°27' E 139°39'0 0.0
2014-Aug-19 20:34N 35°27' E 139°39'0 0.0
2014-Aug-19 19:34N 35°27' E 139°39'0 0.0
2014-Aug-19 18:34N 35°27' E 139°39'0 0.0
2014-Aug-19 17:34N 35°27' E 139°39'0 0.0
2014-Aug-19 16:33N 35°27' E 139°39'0 0.0
2014-Aug-19 15:34N 35°27' E 139°39'0 0.0
2014-Aug-19 14:33N 35°27' E 139°39'0 0.0
2014-Aug-19 13:34N 35°27' E 139°39'0 0.0
2014-Aug-19 12:34N 35°27' E 139°39'0 0.0
2014-Aug-19 11:34N 35°27' E 139°39'0 0.0
2014-Aug-19 10:33N 35°27' E 139°39'0 0.0
2014-Aug-19 09:34N 35°27' E 139°39'0 0.0
2014-Aug-19 08:33N 35°27' E 139°39'2 1.6
2014-Aug-19 07:34N 35°28' E 139°39'2 1.6
2014-Aug-19 06:34N 35°27' E 139°39'1 0.8
2014-Aug-19 05:34N 35°27' E 139°40'1 0.8
2014-Aug-19 04:34N 35°27' E 139°39'0 0.0
2014-Aug-19 03:33N 35°27' E 139°39'0 0.0
2014-Aug-19 02:33N 35°27' E 139°39'0 0.0
2014-Aug-19 01:34N 35°27' E 139°39'0 0.0
2014-Aug-19 00:34N 35°27' E 139°39'0 0.0
2014-Aug-18 23:33N 35°27' E 139°39'1 1.3
2014-Aug-18 22:34N 35°27' E 139°41'1 1.3
2014-Aug-18 21:34N 35°27' E 139°39'0 0.0
2014-Aug-18 20:33N 35°27' E 139°39'0 0.0
2014-Aug-18 19:34N 35°27' E 139°39'0 0.0
2014-Aug-18 18:34N 35°27' E 139°39'0 0.0
2014-Aug-18 17:34N 35°27' E 139°39'0 0.0
2014-Aug-18 16:34N 35°27' E 139°39'0 0.0
2014-Aug-18 15:34N 35°27' E 139°39'0 0.0
2014-Aug-18 14:33N 35°27' E 139°39'0 0.0
2014-Aug-18 13:34N 35°27' E 139°39'0 0.0
2014-Aug-18 12:33N 35°27' E 139°39'0 0.0
2014-Aug-18 11:34N 35°27' E 139°39'0 0.0
2014-Aug-18 10:33N 35°27' E 139°39'0 0.0
2014-Aug-18 09:33N 35°27' E 139°39'0 0.0
2014-Aug-18 08:34N 35°27' E 139°39'0 0.0
2014-Aug-18 07:33N 35°27' E 139°39'0 0.0
2014-Aug-18 06:34N 35°27' E 139°39'0 0.0
2014-Aug-18 05:34N 35°27' E 139°39'0 0.0
2014-Aug-18 04:33N 35°27' E 139°39'0 0.0
2014-Aug-18 03:33N 35°27' E 139°39'0 0.0
2014-Aug-18 02:34N 35°27' E 139°39'0 0.0
2014-Aug-18 01:33N 35°27' E 139°39'6 6.3
2014-Aug-18 00:33N 35°31' E 139°46'6 1.1
2014-Aug-17 18:33N 35°27' E 139°39'0 0.0
2014-Aug-17 17:34N 35°27' E 139°39'0 0.0
2014-Aug-17 16:34N 35°27' E 139°39'0 0.0
2014-Aug-17 15:34N 35°27' E 139°39'0 0.0
2014-Aug-17 14:34N 35°27' E 139°39'0 0.0
2014-Aug-17 13:33N 35°27' E 139°39'0 0.0
2014-Aug-17 12:34N 35°27' E 139°39'0 0.0
2014-Aug-17 11:34N 35°27' E 139°39'0 0.0
2014-Aug-17 10:34N 35°27' E 139°39'0 0.0
2014-Aug-17 09:34N 35°27' E 139°39'2 2.4
2014-Aug-17 08:34N 35°26' E 139°42'2 2.4
2014-Aug-17 07:33N 35°27' E 139°39'0 0.0
2014-Aug-17 06:33N 35°27' E 139°39'0 0.0
2014-Aug-17 05:33N 35°27' E 139°39'0 0.0
2014-Aug-17 04:33N 35°27' E 139°39'0 0.0
2014-Aug-17 03:34N 35°27' E 139°39'0 0.0
2014-Aug-17 02:33N 35°27' E 139°39'0 0.0
2014-Aug-17 01:33N 35°27' E 139°39'1 1.2
2014-Aug-17 00:33N 35°27' E 139°41'1 1.2
2014-Aug-16 23:33N 35°27' E 139°39'0 0.0
2014-Aug-16 22:34N 35°27' E 139°39'0 0.0
2014-Aug-16 21:34N 35°27' E 139°39'0 0.0
2014-Aug-16 20:33N 35°27' E 139°39'0 0.0
2014-Aug-16 19:34N 35°27' E 139°39'0 0.0
2014-Aug-16 18:34N 35°27' E 139°39'0 0.0
2014-Aug-16 17:33N 35°27' E 139°39'0 0.0
2014-Aug-16 16:33N 35°27' E 139°39'0 0.0
2014-Aug-16 15:34N 35°27' E 139°39'0 0.0
2014-Aug-16 14:34N 35°27' E 139°39'0 0.0
2014-Aug-16 13:34N 35°27' E 139°39'0 0.0
2014-Aug-16 12:33N 35°27' E 139°39'0 0.0
2014-Aug-16 11:34N 35°27' E 139°39'0 0.0
2014-Aug-16 10:33N 35°27' E 139°39'0 0.0
2014-Aug-16 09:34N 35°27' E 139°39'0 0.0
2014-Aug-16 08:34N 35°27' E 139°39'0 0.0
2014-Aug-16 07:33N 35°27' E 139°39'0 0.0
2014-Aug-16 06:33N 35°27' E 139°39'0 0.0
2014-Aug-16 05:34N 35°27' E 139°39'0 0.0
2014-Aug-16 04:34N 35°27' E 139°39'0 0.0
2014-Aug-16 03:33N 35°27' E 139°39'0 0.0
2014-Aug-16 02:33N 35°27' E 139°39'0 0.0
2014-Aug-16 01:33N 35°27' E 139°39'0 0.0
2014-Aug-16 00:33N 35°27' E 139°39'0 0.0
2014-Aug-15 23:33N 35°27' E 139°39'0 0.0
2014-Aug-15 22:34N 35°27' E 139°39'0 0.0
2014-Aug-15 21:33N 35°27' E 139°39'0 0.0
2014-Aug-15 20:33N 35°27' E 139°39'0 0.0
2014-Aug-15 19:34N 35°27' E 139°39'0 0.0
2014-Aug-15 18:33N 35°27' E 139°39'0 0.0
2014-Aug-15 17:34N 35°27' E 139°39'0 0.0
2014-Aug-15 16:34N 35°27' E 139°39'0 0.0
2014-Aug-15 15:33N 35°27' E 139°39'0 0.0
2014-Aug-15 14:34N 35°27' E 139°39'0 0.0
2014-Aug-15 13:34N 35°27' E 139°39'0 0.0
2014-Aug-15 12:33N 35°27' E 139°39'0 0.0
2014-Aug-15 11:34N 35°27' E 139°39'0 0.0
2014-Aug-15 10:34N 35°27' E 139°39'0 0.0
2014-Aug-15 09:33N 35°27' E 139°39'0 0.0
2014-Aug-15 08:34N 35°27' E 139°39'0 0.0
2014-Aug-15 07:34N 35°27' E 139°39'0 0.0
2014-Aug-15 06:33N 35°27' E 139°39'5 4.7
2014-Aug-15 05:33N 35°30' E 139°44'2 2.2
2014-Aug-15 04:34N 35°29' E 139°42'2 1.7
2014-Aug-15 03:33N 35°28' E 139°44'0 0.1
2014-Aug-15 02:33N 35°28' E 139°44'0 0.0
2014-Aug-15 01:33N 35°28' E 139°44'0 0.0
2014-Aug-15 00:33N 35°28' E 139°44'0 0.0
2014-Aug-14 23:33N 35°28' E 139°44'0 0.0
2014-Aug-14 22:33N 35°28' E 139°44'4 3.8
2014-Aug-14 21:33N 35°31' E 139°46'7 6.6
2014-Aug-14 20:33N 35°27' E 139°39'0 0.0
2014-Aug-14 19:33N 35°27' E 139°39'0 0.0
2014-Aug-14 18:33N 35°27' E 139°39'0 0.0
2014-Aug-14 17:34N 35°27' E 139°39'0 0.0
2014-Aug-14 16:34N 35°27' E 139°39'0 0.0
2014-Aug-14 15:33N 35°27' E 139°39'0 0.0
2014-Aug-14 14:33N 35°27' E 139°39'0 0.0
2014-Aug-14 13:33N 35°27' E 139°39'0 0.0
2014-Aug-14 12:33N 35°27' E 139°39'0 0.0
2014-Aug-14 11:33N 35°27' E 139°39'0 0.0
2014-Aug-14 10:33N 35°27' E 139°39'1 1.1
2014-Aug-14 09:33N 35°27' E 139°41'3 3.1
2014-Aug-14 08:34N 35°24' E 139°41'1 1.1
2014-Aug-14 07:33N 35°23' E 139°41'5 4.8
2014-Aug-14 06:33N 35°26' E 139°44'5 4.7
2014-Aug-14 05:33N 35°31' E 139°46'4 3.5
2014-Aug-14 04:33N 35°29' E 139°42'3 3.1
2014-Aug-14 03:33N 35°27' E 139°39'0 0.0
2014-Aug-14 02:34N 35°27' E 139°39'0 0.0
2014-Aug-14 01:34N 35°27' E 139°39'0 0.1
2014-Aug-14 00:33N 35°27' E 139°39'1 1.4
2014-Aug-13 23:34N 35°26' E 139°41'2 2.2
2014-Aug-13 22:33N 35°26' E 139°43'3 3.4
2014-Aug-13 21:33N 35°27' E 139°39'0 0.0
2014-Aug-13 20:33N 35°27' E 139°39'0 0.0
2014-Aug-13 19:34N 35°27' E 139°39'0 0.0
2014-Aug-13 18:33N 35°27' E 139°39'0 0.0
2014-Aug-13 17:33N 35°27' E 139°39'0 0.0
2014-Aug-13 16:33N 35°27' E 139°39'0 0.0
2014-Aug-13 15:33N 35°27' E 139°39'0 0.0
2014-Aug-13 14:34N 35°27' E 139°39'0 0.0
2014-Aug-13 13:33N 35°27' E 139°39'0 0.0
2014-Aug-13 12:33N 35°27' E 139°39'0 0.0
2014-Aug-13 11:34N 35°27' E 139°39'0 0.0
2014-Aug-13 10:33N 35°27' E 139°39'1 1.0
2014-Aug-13 09:34N 35°27' E 139°41'1 1.1
2014-Aug-13 08:33N 35°26' E 139°42'2 2.0
2014-Aug-13 07:34N 35°27' E 139°39'0 0.0
2014-Aug-13 06:34N 35°27' E 139°39'0 0.0
2014-Aug-13 05:33N 35°27' E 139°39'0 0.0
2014-Aug-13 04:33N 35°27' E 139°39'  

Dump ship's entire track history